Gas Hills, Wyoming
Current Conditions -  °F | °C
As of 12:53 PM on Sunday 25 Jan 2015 (Local Time) from KLND Reporting Station
Clear Clear  
Wind Chill: 38°   Ceiling: Unl
Heat Index: 41°   Visibility: 10mi
Dew Point: 29°   Wind: 5mph
Humidity: 62%   Direction: NA
Pressure: 30.13"   Gusts: NA
Location:  43.1005°N, 108.934°W
Report Text: KLND 251953Z AUTO VRB04KT 10SM CLR 05/M02 A3013 RMK AO2 SLP209 T00501017
Loading
Personal Weather Stations






























Interactive Weather Map New forecast layout! Learn more

10-Day Weather Forecast

Advertisements
Track Severe Weather on mobile